createdAt,value
2023-11-23T00:01:45.938Z,2.00
2023-11-23T00:04:13.801Z,3.20
2023-11-23T00:06:41.543Z,1.40
2023-11-23T00:09:10.730Z,1.90
2023-11-23T00:11:42.267Z,2.60
2023-11-23T00:14:09.938Z,1.70
2023-11-23T00:16:37.923Z,2.20
2023-11-23T00:19:06.507Z,2.00
2023-11-23T00:21:34.043Z,2.00
2023-11-23T00:24:02.609Z,1.70
2023-11-23T00:26:30.304Z,2.10
2023-11-23T00:28:59.864Z,1.80
2023-11-23T00:31:27.733Z,2.30
2023-11-23T00:33:55.665Z,1.70
2023-11-23T00:36:23.672Z,1.50
2023-11-23T00:38:51.468Z,1.10
2023-11-23T00:41:19.305Z,1.50
2023-11-23T00:43:47.064Z,1.30
2023-11-23T00:46:16.813Z,1.60
2023-11-23T00:48:44.565Z,1.40
2023-11-23T00:51:12.280Z,1.20
2023-11-23T00:53:43.756Z,2.10
2023-11-23T00:56:12.240Z,1.90
2023-11-23T00:58:40.210Z,1.70
2023-11-23T01:01:08.631Z,1.50
2023-11-23T01:03:37.413Z,2.10
2023-11-23T01:06:05.494Z,1.80
2023-11-23T01:08:33.621Z,1.80
2023-11-23T01:11:02.840Z,1.90
2023-11-23T01:13:31.052Z,2.10
2023-11-23T01:15:58.860Z,1.90
2023-11-23T01:18:26.516Z,1.90
2023-11-23T01:20:54.281Z,2.00
2023-11-23T01:23:22.924Z,1.30
2023-11-23T01:25:50.481Z,1.60
2023-11-23T01:28:18.093Z,2.00
2023-11-23T01:30:46.266Z,1.40
2023-11-23T01:33:14.594Z,2.10
2023-11-23T01:35:42.449Z,1.40
2023-11-23T01:38:10.534Z,1.50
2023-11-23T01:40:38.148Z,1.80
2023-11-23T01:43:11.667Z,1.50
2023-11-23T01:45:39.738Z,2.10
2023-11-23T01:48:16.258Z,1.60
2023-11-23T01:50:46.140Z,1.40
2023-11-23T01:53:13.865Z,1.30
2023-11-23T01:55:41.391Z,1.90
2023-11-23T01:58:09.087Z,5.40
2023-11-23T02:00:38.245Z,5.30
2023-11-23T02:03:13.377Z,3.50
2023-11-23T02:05:41.340Z,3.30
2023-11-23T02:08:09.054Z,2.40
2023-11-23T02:10:36.615Z,2.30
2023-11-23T02:13:08.066Z,3.00
2023-11-23T02:15:38.764Z,1.80
2023-11-23T02:18:08.793Z,1.60
2023-11-23T02:20:36.889Z,2.50
2023-11-23T02:23:05.382Z,2.80
2023-11-23T02:25:33.034Z,2.70
2023-11-23T02:28:00.692Z,2.50
2023-11-23T02:30:28.422Z,1.70
2023-11-23T02:32:57.756Z,1.50
2023-11-23T02:35:27.208Z,1.70
2023-11-23T02:37:55.234Z,1.80
2023-11-23T02:40:23.052Z,2.10
2023-11-23T02:42:50.668Z,2.20
2023-11-23T02:45:20.423Z,1.30
2023-11-23T02:47:49.497Z,3.00
2023-11-23T02:50:17.466Z,1.90
2023-11-23T02:52:45.107Z,1.90
2023-11-23T02:55:12.969Z,1.90
2023-11-23T02:57:44.415Z,2.30
2023-11-23T03:00:13.762Z,1.80
2023-11-23T03:02:41.663Z,1.50
2023-11-23T03:05:13.590Z,2.20
2023-11-23T03:07:41.325Z,3.50
2023-11-23T03:10:11.050Z,2.60
2023-11-23T03:12:38.542Z,2.40
2023-11-23T03:15:06.698Z,2.20
2023-11-23T03:17:35.482Z,2.60
2023-11-23T03:20:04.438Z,2.10
2023-11-23T03:22:32.513Z,2.10
2023-11-23T03:25:00.478Z,1.90
2023-11-23T03:27:28.044Z,1.90
2023-11-23T03:29:55.825Z,1.90
2023-11-23T03:32:26.764Z,1.70
2023-11-23T03:34:54.430Z,1.50
2023-11-23T03:37:23.298Z,1.40
2023-11-23T03:39:50.850Z,1.20
2023-11-23T03:42:18.681Z,2.10
2023-11-23T03:44:46.460Z,1.90
2023-11-23T03:47:14.162Z,2.30
2023-11-23T03:49:41.709Z,1.30
2023-11-23T03:52:09.369Z,1.50
2023-11-23T03:54:37.446Z,1.20
2023-11-23T03:57:08.000Z,2.30
2023-11-23T03:59:35.947Z,1.10
2023-11-23T04:02:04.867Z,1.60
2023-11-23T04:04:32.587Z,2.00
2023-11-23T04:07:00.270Z,2.00
2023-11-23T04:09:28.057Z,1.70
2023-11-23T04:11:55.814Z,1.20
2023-11-23T04:14:23.661Z,2.10
2023-11-23T04:16:51.479Z,1.90
2023-11-23T04:19:19.032Z,2.60
2023-11-23T04:21:47.976Z,1.70
2023-11-23T04:24:15.981Z,1.40
2023-11-23T04:26:43.626Z,1.70
2023-11-23T04:29:11.238Z,2.00
2023-11-23T04:31:38.941Z,1.70
2023-11-23T04:34:06.655Z,1.40
2023-11-23T04:36:35.588Z,1.70
2023-11-23T04:39:03.180Z,1.80
2023-11-23T04:41:30.879Z,1.50
2023-11-23T04:43:58.685Z,1.90
2023-11-23T04:46:26.473Z,2.00
2023-11-23T04:48:54.441Z,2.20
2023-11-23T04:51:22.109Z,3.00
2023-11-23T04:53:49.660Z,2.30
2023-11-23T04:56:17.561Z,1.00
2023-11-23T04:58:47.042Z,1.60
2023-11-23T05:01:14.705Z,1.60
2023-11-23T05:03:42.549Z,1.90
2023-11-23T05:06:10.540Z,2.50
2023-11-23T05:08:38.290Z,2.50
2023-11-23T05:11:06.055Z,1.70
2023-11-23T05:13:34.256Z,2.20
2023-11-23T05:16:02.075Z,1.50
2023-11-23T05:18:29.765Z,1.60
2023-11-23T05:20:58.232Z,1.60
2023-11-23T05:23:25.938Z,2.00
2023-11-23T05:25:53.981Z,2.50
2023-11-23T05:28:22.949Z,1.60
2023-11-23T05:30:51.080Z,2.00
2023-11-23T05:33:18.914Z,1.90
2023-11-23T05:35:47.039Z,1.90
2023-11-23T05:38:14.693Z,2.40
2023-11-23T05:40:42.237Z,1.60
2023-11-23T05:43:10.060Z,2.40
2023-11-23T05:45:37.811Z,1.50
2023-11-23T05:48:07.401Z,1.30
2023-11-23T05:50:35.159Z,1.60
2023-11-23T05:53:02.868Z,2.70
2023-11-23T05:55:30.365Z,1.90
2023-11-23T05:57:57.967Z,2.60
2023-11-23T06:00:26.422Z,1.60
2023-11-23T06:02:54.516Z,2.20
2023-11-23T06:05:22.349Z,2.90
2023-11-23T06:07:49.946Z,2.80
2023-11-23T06:10:17.860Z,2.00
2023-11-23T06:12:45.680Z,1.40
2023-11-23T06:15:13.365Z,2.20
2023-11-23T06:17:41.464Z,1.40
2023-11-23T06:20:10.048Z,2.20
2023-11-23T06:22:37.900Z,2.20
2023-11-23T06:25:08.819Z,1.50
2023-11-23T06:27:37.284Z,1.80
2023-11-23T06:30:06.985Z,1.80
2023-11-23T06:32:34.884Z,2.20
2023-11-23T06:35:02.632Z,2.40
2023-11-23T06:37:30.233Z,1.70
2023-11-23T06:39:58.562Z,2.60
2023-11-23T06:42:26.286Z,1.80
2023-11-23T06:44:55.439Z,1.80
2023-11-23T06:47:22.936Z,2.00
2023-11-23T06:49:50.855Z,2.80
2023-11-23T06:52:22.154Z,2.10
2023-11-23T06:54:49.985Z,2.60
2023-11-23T06:57:17.674Z,2.00
2023-11-23T06:59:45.900Z,2.10
2023-11-23T07:02:13.558Z,2.60
2023-11-23T07:04:45.695Z,2.60
2023-11-23T07:07:14.326Z,3.10
2023-11-23T07:09:41.867Z,2.50
2023-11-23T07:12:10.301Z,2.10
2023-11-23T07:14:42.948Z,1.70
2023-11-23T07:17:10.651Z,3.60
2023-11-23T07:19:38.111Z,2.40
2023-11-23T07:22:05.637Z,2.10
2023-11-23T07:24:36.676Z,1.90
2023-11-23T07:27:04.877Z,3.00
2023-11-23T07:29:33.221Z,3.30
2023-11-23T07:32:01.097Z,2.00
2023-11-23T07:34:29.890Z,2.50
2023-11-23T07:36:57.577Z,1.60
2023-11-23T07:39:25.446Z,1.80
2023-11-23T07:41:53.439Z,2.40
2023-11-23T07:44:22.081Z,2.30
2023-11-23T07:46:49.642Z,2.90
2023-11-23T07:49:17.994Z,1.70
2023-11-23T07:51:45.524Z,2.90
2023-11-23T07:54:13.034Z,2.40
2023-11-23T07:56:42.314Z,2.70
2023-11-23T07:59:09.775Z,2.30
2023-11-23T08:01:37.314Z,2.10
2023-11-23T08:04:05.157Z,2.50
2023-11-23T08:06:33.652Z,2.70
2023-11-23T08:09:01.405Z,2.90
2023-11-23T08:11:30.037Z,3.10
2023-11-23T08:14:01.416Z,2.10
2023-11-23T08:16:29.267Z,2.50
2023-11-23T08:18:59.526Z,1.70
2023-11-23T08:21:27.478Z,2.10
2023-11-23T08:23:56.232Z,2.60
2023-11-23T08:26:23.778Z,2.20
2023-11-23T08:28:51.346Z,2.00
2023-11-23T08:31:19.348Z,2.90
2023-11-23T08:33:52.602Z,2.20
2023-11-23T08:36:20.486Z,2.70
2023-11-23T08:38:48.285Z,2.20
2023-11-23T08:41:19.767Z,2.60
2023-11-23T08:43:49.981Z,3.50
2023-11-23T08:46:18.604Z,2.70
2023-11-23T08:48:46.575Z,2.20
2023-11-23T08:51:15.006Z,2.30
2023-11-23T08:53:42.617Z,2.00
2023-11-23T08:56:10.171Z,2.80
2023-11-23T08:58:37.838Z,3.30
2023-11-23T09:01:06.320Z,2.20
2023-11-23T09:03:34.191Z,3.30
2023-11-23T09:06:01.951Z,2.40
2023-11-23T09:08:29.712Z,2.90
2023-11-23T09:10:57.204Z,2.70
2023-11-23T09:13:27.362Z,2.10
2023-11-23T09:15:55.742Z,2.80
2023-11-23T09:18:23.785Z,2.50
2023-11-23T09:20:52.687Z,2.60
2023-11-23T09:23:20.456Z,2.60
2023-11-23T09:25:48.057Z,2.00
2023-11-23T09:28:15.927Z,2.60
2023-11-23T09:30:43.604Z,2.60
2023-11-23T09:33:16.548Z,2.70
2023-11-23T09:35:46.802Z,2.00
2023-11-23T09:38:14.362Z,2.20
2023-11-23T09:40:42.372Z,2.60
2023-11-23T09:43:10.963Z,2.60
2023-11-23T09:45:38.773Z,2.60
2023-11-23T09:48:06.774Z,3.00
2023-11-23T09:50:37.942Z,2.80
2023-11-23T09:53:08.017Z,2.80
2023-11-23T09:55:35.683Z,3.60
2023-11-23T09:58:06.089Z,3.70
2023-11-23T10:00:37.381Z,2.90
2023-11-23T10:03:08.704Z,3.00
2023-11-23T10:05:36.565Z,3.30
2023-11-23T10:08:05.657Z,3.00
2023-11-23T10:10:33.266Z,2.90
2023-11-23T10:13:01.191Z,2.40
2023-11-23T10:15:30.162Z,2.50
2023-11-23T10:17:58.031Z,3.10
2023-11-23T10:20:27.710Z,3.30
2023-11-23T10:22:55.776Z,2.60
2023-11-23T10:25:33.230Z,2.70
2023-11-23T10:28:01.565Z,2.30
2023-11-23T10:30:29.791Z,1.80
2023-11-23T10:32:58.185Z,3.10
2023-11-23T10:35:41.545Z,2.10
2023-11-23T10:38:09.419Z,2.50
2023-11-23T10:40:37.178Z,2.20
2023-11-23T10:43:05.002Z,2.50
2023-11-23T10:45:34.870Z,2.30
2023-11-23T10:48:04.679Z,2.20
2023-11-23T10:50:33.608Z,2.00
2023-11-23T10:53:04.903Z,2.40
2023-11-23T10:55:32.947Z,2.90
2023-11-23T10:58:08.023Z,2.00
2023-11-23T11:00:36.227Z,3.00
2023-11-23T11:03:05.891Z,3.00
2023-11-23T11:05:36.564Z,2.60
2023-11-23T11:08:06.951Z,3.10
2023-11-23T11:10:43.687Z,2.20
2023-11-23T11:13:18.952Z,3.00
2023-11-23T11:28:55.336Z,7.90
2023-11-23T11:31:30.624Z,2.70
2023-11-23T11:33:58.397Z,3.00
2023-11-23T11:36:26.913Z,3.60
2023-11-23T11:39:00.703Z,3.50
2023-11-23T11:41:32.646Z,3.00
2023-11-23T11:44:00.252Z,3.30
2023-11-23T11:46:30.859Z,3.20
2023-11-23T11:48:59.391Z,3.50
2023-11-23T11:51:27.971Z,4.20
2023-11-23T11:53:56.502Z,3.80
2023-11-23T11:56:24.298Z,3.20
2023-11-23T11:58:52.346Z,4.40
2023-11-23T12:01:20.383Z,2.70
2023-11-23T12:03:49.053Z,3.50
2023-11-23T12:06:20.456Z,4.30
2023-11-23T12:08:48.156Z,3.10
2023-11-23T12:11:28.872Z,4.30
2023-11-23T12:13:58.817Z,3.30
2023-11-23T12:16:35.857Z,3.80
2023-11-23T12:19:16.839Z,3.90
2023-11-23T12:21:44.598Z,5.50
2023-11-23T12:24:19.309Z,2.90
2023-11-23T12:26:47.873Z,4.50
2023-11-23T12:29:25.713Z,4.70
2023-11-23T12:31:53.484Z,3.80
2023-11-23T12:34:21.404Z,3.70
2023-11-23T12:36:49.056Z,3.10
2023-11-23T12:39:17.219Z,4.90
2023-11-23T12:41:53.157Z,3.00
2023-11-23T12:44:23.078Z,3.60
2023-11-23T12:46:50.808Z,3.80
2023-11-23T12:49:18.936Z,2.20
2023-11-23T12:51:46.469Z,2.60
2023-11-23T12:54:16.006Z,3.00
2023-11-23T12:56:43.863Z,3.80
2023-11-23T12:59:11.685Z,3.80
2023-11-23T13:01:40.502Z,4.20
2023-11-23T13:04:11.352Z,3.70
2023-11-23T13:06:39.283Z,3.30
2023-11-23T13:09:13.029Z,3.40
2023-11-23T13:11:41.289Z,3.80
2023-11-23T13:14:10.991Z,3.20
2023-11-23T13:16:38.745Z,3.50
2023-11-23T13:19:17.168Z,3.50
2023-11-23T13:21:54.972Z,3.60
2023-11-23T13:24:22.807Z,2.90
2023-11-23T13:26:51.096Z,2.30
2023-11-23T13:29:19.706Z,3.90
2023-11-23T13:31:47.991Z,4.20
2023-11-23T13:34:16.284Z,4.60
2023-11-23T13:36:44.197Z,3.40
2023-11-23T13:39:16.050Z,4.40
2023-11-23T13:41:43.849Z,3.10
2023-11-23T13:44:12.312Z,4.10
2023-11-23T13:46:40.244Z,3.40
2023-11-23T13:49:08.944Z,3.40
2023-11-23T13:51:36.740Z,3.20
2023-11-23T13:54:08.116Z,3.60
2023-11-23T13:56:37.316Z,3.60
2023-11-23T13:59:08.748Z,4.50
2023-11-23T14:01:38.546Z,2.90
2023-11-23T14:04:08.742Z,4.10
2023-11-23T14:06:36.315Z,4.10
2023-11-23T14:09:05.416Z,3.50
2023-11-23T14:11:44.273Z,4.60
2023-11-23T14:14:11.910Z,4.20
2023-11-23T14:16:40.298Z,4.00
2023-11-23T14:19:11.051Z,3.80
2023-11-23T14:21:39.736Z,5.20
2023-11-23T14:24:09.255Z,3.80
2023-11-23T14:26:38.038Z,3.40
2023-11-23T14:29:07.716Z,4.50
2023-11-23T14:31:38.077Z,4.40
2023-11-23T14:34:15.800Z,4.30
2023-11-23T14:36:50.854Z,5.60
2023-11-23T14:39:24.928Z,3.10
2023-11-23T14:41:54.323Z,3.90
2023-11-23T14:44:21.892Z,4.20
2023-11-23T14:46:51.469Z,4.50
2023-11-23T14:49:21.785Z,4.30
2023-11-23T14:51:52.520Z,4.90
2023-11-23T14:54:32.101Z,3.50
2023-11-23T14:57:09.508Z,4.80
2023-11-23T14:59:37.687Z,4.00
2023-11-23T15:02:05.777Z,5.20
2023-11-23T15:04:35.261Z,4.00
2023-11-23T15:07:06.962Z,4.50
2023-11-23T15:09:35.102Z,3.10
2023-11-23T15:12:04.095Z,6.00
2023-11-23T15:14:33.016Z,3.50
2023-11-23T15:17:01.506Z,5.10
2023-11-23T15:19:33.374Z,5.50
2023-11-23T15:22:07.614Z,5.60
2023-11-23T15:24:36.091Z,4.70
2023-11-23T15:27:06.320Z,4.50
2023-11-23T15:29:34.682Z,4.50
2023-11-23T15:32:04.723Z,3.40
2023-11-23T15:34:33.256Z,3.70
2023-11-23T15:37:01.429Z,4.40
2023-11-23T15:39:30.263Z,4.40
2023-11-23T15:41:58.396Z,6.50
2023-11-23T15:44:26.676Z,4.40
2023-11-23T15:46:54.427Z,4.70
2023-11-23T15:49:22.167Z,4.80
2023-11-23T15:51:50.069Z,5.00
2023-11-23T15:54:20.644Z,3.90
2023-11-23T15:56:48.267Z,4.30
2023-11-23T15:59:15.925Z,4.00
2023-11-23T16:01:43.636Z,6.00
2023-11-23T16:04:14.197Z,3.90
2023-11-23T16:06:42.184Z,4.20
2023-11-23T16:09:12.878Z,3.70
2023-11-23T16:11:40.691Z,3.90
2023-11-23T16:14:10.534Z,5.80
2023-11-23T16:16:39.315Z,4.90
2023-11-23T16:19:07.021Z,4.40
2023-11-23T16:21:34.813Z,3.50
2023-11-23T16:24:02.681Z,4.80
2023-11-23T16:26:32.414Z,5.20
2023-11-23T16:29:02.409Z,4.80
2023-11-23T16:31:30.151Z,4.70
2023-11-23T16:33:58.041Z,5.50
2023-11-23T16:36:33.314Z,4.70
2023-11-23T16:39:08.486Z,4.20
2023-11-23T16:41:36.488Z,3.20
2023-11-23T16:44:04.465Z,2.80
2023-11-23T16:46:32.248Z,4.40
2023-11-23T16:49:00.112Z,5.00
2023-11-23T16:51:27.792Z,4.40
2023-11-23T16:53:56.492Z,3.10
2023-11-23T16:56:24.721Z,4.40
2023-11-23T16:58:52.287Z,4.00
2023-11-23T17:01:20.308Z,4.10
2023-11-23T17:03:48.198Z,4.80
2023-11-23T17:06:16.003Z,4.00
2023-11-23T17:08:43.668Z,4.60
2023-11-23T17:11:11.236Z,4.50
2023-11-23T17:13:38.790Z,5.20
2023-11-23T17:16:07.329Z,4.70
2023-11-23T17:18:35.197Z,4.90
2023-11-23T17:21:03.192Z,4.00
2023-11-23T17:23:31.889Z,5.00
2023-11-23T17:25:59.376Z,4.60
2023-11-23T17:28:27.009Z,6.10
2023-11-23T17:30:56.154Z,3.50
2023-11-23T17:33:24.654Z,4.80
2023-11-23T17:35:53.207Z,5.20
2023-11-23T17:38:21.435Z,4.00
2023-11-23T17:40:49.102Z,5.80
2023-11-23T17:43:16.754Z,4.20
2023-11-23T17:45:48.778Z,4.40
2023-11-23T17:48:17.057Z,4.70
2023-11-23T17:50:45.120Z,4.60
2023-11-23T17:53:13.083Z,5.20
2023-11-23T17:55:42.178Z,3.70
2023-11-23T17:58:11.048Z,3.90
2023-11-23T18:00:40.573Z,4.40
2023-11-23T18:03:08.277Z,4.30
2023-11-23T18:05:40.155Z,3.00
2023-11-23T18:08:09.958Z,4.60
2023-11-23T18:10:38.161Z,3.80
2023-11-23T18:13:10.331Z,4.50
2023-11-23T18:15:39.253Z,3.80
2023-11-23T18:18:15.419Z,4.90
2023-11-23T18:20:50.490Z,4.40
2023-11-23T18:23:18.162Z,5.20
2023-11-23T18:25:46.130Z,4.20
2023-11-23T18:28:13.739Z,4.70
2023-11-23T18:30:41.416Z,5.00
2023-11-23T18:33:12.229Z,4.70
2023-11-23T18:35:47.232Z,4.20
2023-11-23T18:38:15.822Z,4.00
2023-11-23T18:40:43.982Z,4.50
2023-11-23T18:43:12.121Z,5.00
2023-11-23T18:45:41.898Z,4.50
2023-11-23T18:48:09.869Z,4.30
2023-11-23T18:50:37.600Z,5.40
2023-11-23T18:53:05.262Z,4.50
2023-11-23T18:55:33.332Z,4.40
2023-11-23T18:58:03.612Z,4.90
2023-11-23T19:00:32.518Z,4.80
2023-11-23T19:03:00.670Z,4.60
2023-11-23T19:05:28.387Z,4.30
2023-11-23T19:07:56.061Z,5.60
2023-11-23T19:10:25.860Z,4.10
2023-11-23T19:13:03.328Z,4.30
2023-11-23T19:15:34.010Z,6.10
2023-11-23T19:18:04.454Z,4.50
2023-11-23T19:20:35.790Z,6.10
2023-11-23T19:23:04.509Z,4.00
2023-11-23T19:25:34.844Z,4.80
2023-11-23T19:28:04.001Z,5.10
2023-11-23T19:30:32.561Z,4.70
2023-11-23T19:33:02.544Z,5.80
2023-11-23T19:35:31.000Z,4.20
2023-11-23T19:37:58.906Z,5.00
2023-11-23T19:40:27.064Z,4.10
2023-11-23T19:42:56.506Z,3.40
2023-11-23T19:45:25.253Z,4.40
2023-11-23T19:47:53.730Z,3.80
2023-11-23T19:50:22.700Z,5.60
2023-11-23T19:52:51.475Z,5.60
2023-11-23T19:55:19.424Z,4.20
2023-11-23T19:57:48.373Z,3.50
2023-11-23T20:00:17.363Z,4.40
2023-11-23T20:02:45.339Z,4.10
2023-11-23T20:05:13.291Z,4.30
2023-11-23T20:07:41.229Z,3.40
2023-11-23T20:10:09.427Z,4.30
2023-11-23T20:12:37.936Z,5.20
2023-11-23T20:15:05.966Z,4.30
2023-11-23T20:17:33.931Z,3.70
2023-11-23T20:20:01.664Z,3.40
2023-11-23T20:22:29.249Z,3.50
2023-11-23T20:24:57.149Z,3.40
2023-11-23T20:27:25.010Z,5.10
2023-11-23T20:29:52.833Z,4.80
2023-11-23T20:32:20.391Z,3.90
2023-11-23T20:34:48.370Z,3.30
2023-11-23T20:37:16.125Z,2.80
2023-11-23T20:39:45.379Z,5.20
2023-11-23T20:42:13.156Z,3.80
2023-11-23T20:44:40.855Z,4.30
2023-11-23T20:47:09.340Z,5.20
2023-11-23T20:49:36.896Z,3.60
2023-11-23T20:52:05.081Z,2.80
2023-11-23T20:54:32.858Z,3.60
2023-11-23T20:57:01.045Z,3.60
2023-11-23T20:59:29.027Z,4.60
2023-11-23T21:01:57.612Z,2.90
2023-11-23T21:04:29.245Z,3.80
2023-11-23T21:07:02.271Z,3.00
2023-11-23T21:09:31.412Z,3.10
2023-11-23T21:12:04.168Z,3.70
2023-11-23T21:14:34.200Z,3.10
2023-11-23T21:17:02.213Z,5.60
2023-11-23T21:19:29.743Z,2.80
2023-11-23T21:21:57.347Z,3.90
2023-11-23T21:24:24.975Z,2.20
2023-11-23T21:26:54.460Z,3.70
2023-11-23T21:29:22.098Z,3.80
2023-11-23T21:31:49.657Z,2.40
2023-11-23T21:34:17.344Z,3.10
2023-11-23T21:36:45.060Z,3.70
2023-11-23T21:39:13.061Z,3.30
2023-11-23T21:41:42.062Z,2.70
2023-11-23T21:44:09.581Z,3.50
2023-11-23T21:46:37.966Z,3.20
2023-11-23T21:49:06.655Z,2.10
2023-11-23T21:51:34.469Z,7.80
2023-11-23T21:54:02.225Z,4.20
2023-11-23T21:56:29.754Z,4.00
2023-11-23T21:58:57.270Z,3.70
2023-11-23T22:01:24.876Z,7.80
2023-11-23T22:03:52.624Z,3.40
2023-11-23T22:06:21.379Z,2.60
2023-11-23T22:08:49.191Z,3.60
2023-11-23T22:11:16.988Z,2.60
2023-11-23T22:13:45.378Z,2.50
2023-11-23T22:16:15.086Z,2.90
2023-11-23T22:18:43.235Z,4.10
2023-11-23T22:21:11.513Z,6.40
2023-11-23T22:23:39.612Z,2.30
2023-11-23T22:26:09.759Z,3.10
2023-11-23T22:28:37.899Z,2.40
2023-11-23T22:31:08.023Z,2.50
2023-11-23T22:33:35.712Z,3.10
2023-11-23T22:36:04.673Z,2.30
2023-11-23T22:38:32.847Z,3.40
2023-11-23T22:41:00.784Z,6.60
2023-11-23T22:43:28.654Z,2.90
2023-11-23T22:45:56.777Z,2.60
2023-11-23T22:48:24.351Z,1.80
2023-11-23T22:50:51.953Z,2.30
2023-11-23T22:53:19.642Z,3.40
2023-11-23T22:55:47.101Z,3.00
2023-11-23T22:58:14.768Z,3.10
2023-11-23T23:00:45.057Z,3.00
2023-11-23T23:03:13.838Z,2.50
2023-11-23T23:05:44.300Z,3.50
2023-11-23T23:08:11.812Z,7.00
2023-11-23T23:10:39.528Z,2.30
2023-11-23T23:13:08.931Z,3.10
2023-11-23T23:15:36.475Z,2.60
2023-11-23T23:18:04.248Z,3.20
2023-11-23T23:20:32.119Z,3.20
2023-11-23T23:22:59.888Z,6.90
2023-11-23T23:25:27.902Z,2.70
2023-11-23T23:27:55.701Z,2.70
2023-11-23T23:30:23.400Z,2.40
2023-11-23T23:32:51.089Z,3.20
2023-11-23T23:46:46.078Z,2.90
2023-11-23T23:49:13.784Z,6.70
2023-11-23T23:51:41.382Z,6.70
2023-11-23T23:54:09.934Z,3.20
2023-11-23T23:56:39.458Z,7.50
2023-11-23T23:59:07.007Z,2.80
